sensor_id;sensor_type;location;lat;lon;timestamp;P1;durP1;ratioP1;P2;durP2;ratioP2
22144;SDS011;11238;48.730;11.566;2023-05-24T00:02:12;7.50;;;4.18;;
22144;SDS011;11238;48.730;11.566;2023-05-24T00:04:38;5.13;;;4.00;;
22144;SDS011;11238;48.730;11.566;2023-05-24T00:07:05;10.00;;;4.22;;
22144;SDS011;11238;48.730;11.566;2023-05-24T00:09:32;6.38;;;4.53;;
22144;SDS011;11238;48.730;11.566;2023-05-24T00:11:57;5.07;;;4.20;;
22144;SDS011;11238;48.730;11.566;2023-05-24T00:14:24;5.90;;;4.20;;
22144;SDS011;11238;48.730;11.566;2023-05-24T00:16:49;4.63;;;4.22;;
22144;SDS011;11238;48.730;11.566;2023-05-24T00:19:15;6.22;;;4.70;;
22144;SDS011;11238;48.730;11.566;2023-05-24T00:21:43;4.68;;;3.72;;
22144;SDS011;11238;48.730;11.566;2023-05-24T00:24:10;4.22;;;3.83;;
22144;SDS011;11238;48.730;11.566;2023-05-24T00:26:36;4.30;;;3.90;;
22144;SDS011;11238;48.730;11.566;2023-05-24T00:29:02;4.60;;;4.18;;
22144;SDS011;11238;48.730;11.566;2023-05-24T00:31:27;5.45;;;4.03;;
22144;SDS011;11238;48.730;11.566;2023-05-24T00:33:53;4.57;;;3.63;;
22144;SDS011;11238;48.730;11.566;2023-05-24T00:36:19;4.35;;;3.95;;
22144;SDS011;11238;48.730;11.566;2023-05-24T00:38:46;5.57;;;3.90;;
22144;SDS011;11238;48.730;11.566;2023-05-24T00:41:14;4.32;;;3.92;;
22144;SDS011;11238;48.730;11.566;2023-05-24T00:43:40;5.63;;;3.97;;
22144;SDS011;11238;48.730;11.566;2023-05-24T00:46:17;6.43;;;4.20;;
22144;SDS011;11238;48.730;11.566;2023-05-24T00:48:47;7.22;;;4.28;;
22144;SDS011;11238;48.730;11.566;2023-05-24T00:51:13;4.70;;;4.22;;
22144;SDS011;11238;48.730;11.566;2023-05-24T00:53:40;6.18;;;4.25;;
22144;SDS011;11238;48.730;11.566;2023-05-24T00:56:07;4.63;;;4.05;;
22144;SDS011;11238;48.730;11.566;2023-05-24T00:58:34;4.68;;;4.05;;
22144;SDS011;11238;48.730;11.566;2023-05-24T01:01:01;6.28;;;4.40;;
22144;SDS011;11238;48.730;11.566;2023-05-24T01:03:27;4.40;;;4.00;;
22144;SDS011;11238;48.730;11.566;2023-05-24T01:05:57;4.88;;;3.83;;
22144;SDS011;11238;48.730;11.566;2023-05-24T01:08:47;7.72;;;4.03;;
22144;SDS011;11238;48.730;11.566;2023-05-24T01:14:11;4.90;;;3.90;;
22144;SDS011;11238;48.730;11.566;2023-05-24T01:16:52;5.30;;;4.22;;
22144;SDS011;11238;48.730;11.566;2023-05-24T01:19:38;5.78;;;4.10;;
22144;SDS011;11238;48.730;11.566;2023-05-24T01:28:33;6.15;;;4.60;;
22144;SDS011;11238;48.730;11.566;2023-05-24T01:31:00;7.85;;;4.72;;
22144;SDS011;11238;48.730;11.566;2023-05-24T01:33:27;6.32;;;4.65;;
22144;SDS011;11238;48.730;11.566;2023-05-24T01:35:55;5.85;;;4.85;;
22144;SDS011;11238;48.730;11.566;2023-05-24T01:38:20;7.47;;;4.93;;
22144;SDS011;11238;48.730;11.566;2023-05-24T01:40:46;7.57;;;5.00;;
22144;SDS011;11238;48.730;11.566;2023-05-24T01:43:17;6.57;;;4.68;;
22144;SDS011;11238;48.730;11.566;2023-05-24T01:48:37;7.13;;;5.18;;
22144;SDS011;11238;48.730;11.566;2023-05-24T01:51:27;6.85;;;4.80;;
22144;SDS011;11238;48.730;11.566;2023-05-24T01:53:58;8.35;;;4.93;;
22144;SDS011;11238;48.730;11.566;2023-05-24T01:56:26;8.40;;;4.80;;
22144;SDS011;11238;48.730;11.566;2023-05-24T01:58:53;6.18;;;5.00;;
22144;SDS011;11238;48.730;11.566;2023-05-24T02:01:20;6.47;;;4.43;;
22144;SDS011;11238;48.730;11.566;2023-05-24T02:03:47;6.65;;;4.90;;
22144;SDS011;11238;48.730;11.566;2023-05-24T02:06:15;6.78;;;4.63;;
22144;SDS011;11238;48.730;11.566;2023-05-24T02:08:41;7.45;;;5.03;;
22144;SDS011;11238;48.730;11.566;2023-05-24T02:11:07;6.78;;;5.40;;
22144;SDS011;11238;48.730;11.566;2023-05-24T02:13:33;7.45;;;5.50;;
22144;SDS011;11238;48.730;11.566;2023-05-24T02:15:59;8.68;;;5.45;;
22144;SDS011;11238;48.730;11.566;2023-05-24T02:18:25;8.05;;;5.40;;
22144;SDS011;11238;48.730;11.566;2023-05-24T02:20:51;11.48;;;6.10;;
22144;SDS011;11238;48.730;11.566;2023-05-24T02:23:17;7.68;;;5.80;;
22144;SDS011;11238;48.730;11.566;2023-05-24T02:25:43;7.70;;;6.00;;
22144;SDS011;11238;48.730;11.566;2023-05-24T02:28:09;9.63;;;5.93;;
22144;SDS011;11238;48.730;11.566;2023-05-24T02:30:35;7.40;;;5.40;;
22144;SDS011;11238;48.730;11.566;2023-05-24T02:33:02;7.07;;;5.38;;
22144;SDS011;11238;48.730;11.566;2023-05-24T02:35:28;10.63;;;5.57;;
22144;SDS011;11238;48.730;11.566;2023-05-24T02:37:54;8.20;;;5.63;;
22144;SDS011;11238;48.730;11.566;2023-05-24T02:40:22;8.38;;;5.72;;
22144;SDS011;11238;48.730;11.566;2023-05-24T02:42:48;12.82;;;5.97;;
22144;SDS011;11238;48.730;11.566;2023-05-24T02:45:14;9.63;;;6.20;;
22144;SDS011;11238;48.730;11.566;2023-05-24T02:47:40;9.55;;;6.03;;
22144;SDS011;11238;48.730;11.566;2023-05-24T02:50:06;11.70;;;6.90;;
22144;SDS011;11238;48.730;11.566;2023-05-24T02:52:32;8.43;;;6.28;;
22144;SDS011;11238;48.730;11.566;2023-05-24T02:54:58;7.53;;;6.10;;
22144;SDS011;11238;48.730;11.566;2023-05-24T02:57:25;8.23;;;6.32;;
22144;SDS011;11238;48.730;11.566;2023-05-24T02:59:53;8.23;;;6.18;;
22144;SDS011;11238;48.730;11.566;2023-05-24T03:02:20;7.65;;;5.65;;
22144;SDS011;11238;48.730;11.566;2023-05-24T03:04:46;6.38;;;5.30;;
22144;SDS011;11238;48.730;11.566;2023-05-24T03:07:12;6.88;;;5.32;;
22144;SDS011;11238;48.730;11.566;2023-05-24T03:09:39;12.50;;;6.72;;
22144;SDS011;11238;48.730;11.566;2023-05-24T03:12:04;7.72;;;5.63;;
22144;SDS011;11238;48.730;11.566;2023-05-24T03:14:32;8.07;;;5.82;;
22144;SDS011;11238;48.730;11.566;2023-05-24T03:16:58;8.05;;;6.13;;
22144;SDS011;11238;48.730;11.566;2023-05-24T03:19:24;8.32;;;5.70;;
22144;SDS011;11238;48.730;11.566;2023-05-24T03:21:50;6.93;;;5.70;;
22144;SDS011;11238;48.730;11.566;2023-05-24T03:24:16;8.48;;;5.90;;
22144;SDS011;11238;48.730;11.566;2023-05-24T03:26:42;8.90;;;5.38;;
22144;SDS011;11238;48.730;11.566;2023-05-24T03:29:09;8.30;;;5.82;;
22144;SDS011;11238;48.730;11.566;2023-05-24T03:31:38;10.35;;;5.70;;
22144;SDS011;11238;48.730;11.566;2023-05-24T03:34:04;8.40;;;5.70;;
22144;SDS011;11238;48.730;11.566;2023-05-24T03:36:32;8.05;;;6.13;;
22144;SDS011;11238;48.730;11.566;2023-05-24T03:38:58;12.32;;;6.18;;
22144;SDS011;11238;48.730;11.566;2023-05-24T03:41:24;7.55;;;5.60;;
22144;SDS011;11238;48.730;11.566;2023-05-24T03:43:51;8.90;;;6.05;;
22144;SDS011;11238;48.730;11.566;2023-05-24T03:46:18;7.78;;;5.43;;
22144;SDS011;11238;48.730;11.566;2023-05-24T03:48:44;8.35;;;5.53;;
22144;SDS011;11238;48.730;11.566;2023-05-24T03:51:10;8.38;;;5.82;;
22144;SDS011;11238;48.730;11.566;2023-05-24T03:53:35;5.97;;;5.07;;
22144;SDS011;11238;48.730;11.566;2023-05-24T03:56:01;6.90;;;5.50;;
22144;SDS011;11238;48.730;11.566;2023-05-24T03:58:27;9.55;;;5.82;;
22144;SDS011;11238;48.730;11.566;2023-05-24T04:00:53;9.52;;;6.00;;
22144;SDS011;11238;48.730;11.566;2023-05-24T04:03:20;7.97;;;5.70;;
22144;SDS011;11238;48.730;11.566;2023-05-24T04:05:46;8.20;;;6.53;;
22144;SDS011;11238;48.730;11.566;2023-05-24T04:08:12;10.70;;;6.97;;
22144;SDS011;11238;48.730;11.566;2023-05-24T04:10:39;10.90;;;7.25;;
22144;SDS011;11238;48.730;11.566;2023-05-24T04:13:09;9.02;;;6.88;;
22144;SDS011;11238;48.730;11.566;2023-05-24T04:15:35;10.10;;;6.57;;
22144;SDS011;11238;48.730;11.566;2023-05-24T04:18:03;9.10;;;6.88;;
22144;SDS011;11238;48.730;11.566;2023-05-24T04:20:29;11.27;;;7.30;;
22144;SDS011;11238;48.730;11.566;2023-05-24T04:22:55;15.05;;;7.03;;
22144;SDS011;11238;48.730;11.566;2023-05-24T04:25:21;11.68;;;6.78;;
22144;SDS011;11238;48.730;11.566;2023-05-24T04:27:47;6.97;;;5.80;;
22144;SDS011;11238;48.730;11.566;2023-05-24T04:30:14;12.48;;;6.53;;
22144;SDS011;11238;48.730;11.566;2023-05-24T04:32:41;10.23;;;6.18;;
22144;SDS011;11238;48.730;11.566;2023-05-24T04:35:11;10.13;;;5.93;;
22144;SDS011;11238;48.730;11.566;2023-05-24T04:37:37;10.95;;;6.05;;
22144;SDS011;11238;48.730;11.566;2023-05-24T04:40:04;11.45;;;6.38;;
22144;SDS011;11238;48.730;11.566;2023-05-24T04:42:35;8.25;;;6.22;;
22144;SDS011;11238;48.730;11.566;2023-05-24T04:45:01;10.25;;;5.70;;
22144;SDS011;11238;48.730;11.566;2023-05-24T04:47:27;9.23;;;5.88;;
22144;SDS011;11238;48.730;11.566;2023-05-24T04:49:53;14.68;;;5.72;;
22144;SDS011;11238;48.730;11.566;2023-05-24T04:52:18;10.10;;;6.32;;
22144;SDS011;11238;48.730;11.566;2023-05-24T04:54:44;11.27;;;6.15;;
22144;SDS011;11238;48.730;11.566;2023-05-24T04:57:10;12.65;;;5.95;;
22144;SDS011;11238;48.730;11.566;2023-05-24T04:59:36;11.60;;;5.80;;
22144;SDS011;11238;48.730;11.566;2023-05-24T05:02:02;7.75;;;5.85;;
22144;SDS011;11238;48.730;11.566;2023-05-24T05:04:29;10.18;;;6.53;;
22144;SDS011;11238;48.730;11.566;2023-05-24T05:06:55;7.82;;;5.25;;
22144;SDS011;11238;48.730;11.566;2023-05-24T05:09:21;8.48;;;6.30;;
22144;SDS011;11238;48.730;11.566;2023-05-24T05:11:49;11.50;;;6.00;;
22144;SDS011;11238;48.730;11.566;2023-05-24T05:14:15;12.63;;;7.00;;
22144;SDS011;11238;48.730;11.566;2023-05-24T05:16:41;9.75;;;6.47;;
22144;SDS011;11238;48.730;11.566;2023-05-24T05:19:29;11.48;;;6.38;;
22144;SDS011;11238;48.730;11.566;2023-05-24T05:21:55;9.18;;;6.43;;
22144;SDS011;11238;48.730;11.566;2023-05-24T05:24:20;9.18;;;6.50;;
22144;SDS011;11238;48.730;11.566;2023-05-24T05:26:46;8.93;;;6.30;;
22144;SDS011;11238;48.730;11.566;2023-05-24T05:29:13;15.93;;;6.68;;
22144;SDS011;11238;48.730;11.566;2023-05-24T05:31:38;10.48;;;6.45;;
22144;SDS011;11238;48.730;11.566;2023-05-24T05:34:04;8.95;;;6.18;;
22144;SDS011;11238;48.730;11.566;2023-05-24T05:36:34;9.40;;;6.50;;
22144;SDS011;11238;48.730;11.566;2023-05-24T05:39:05;10.23;;;6.20;;
22144;SDS011;11238;48.730;11.566;2023-05-24T05:41:37;8.88;;;5.65;;
22144;SDS011;11238;48.730;11.566;2023-05-24T05:44:04;13.00;;;5.70;;
22144;SDS011;11238;48.730;11.566;2023-05-24T05:46:30;7.93;;;4.55;;
22144;SDS011;11238;48.730;11.566;2023-05-24T05:48:56;13.13;;;5.43;;
22144;SDS011;11238;48.730;11.566;2023-05-24T05:51:22;12.93;;;4.85;;
22144;SDS011;11238;48.730;11.566;2023-05-24T05:53:48;10.43;;;4.93;;
22144;SDS011;11238;48.730;11.566;2023-05-24T05:56:14;12.55;;;4.97;;
22144;SDS011;11238;48.730;11.566;2023-05-24T05:58:40;15.60;;;4.75;;
22144;SDS011;11238;48.730;11.566;2023-05-24T06:01:06;12.07;;;5.20;;
22144;SDS011;11238;48.730;11.566;2023-05-24T06:03:32;14.23;;;5.00;;
22144;SDS011;11238;48.730;11.566;2023-05-24T06:05:59;7.57;;;4.18;;
22144;SDS011;11238;48.730;11.566;2023-05-24T06:08:25;10.90;;;5.13;;
22144;SDS011;11238;48.730;11.566;2023-05-24T06:11:13;7.85;;;5.07;;
22144;SDS011;11238;48.730;11.566;2023-05-24T06:13:38;12.70;;;5.30;;
22144;SDS011;11238;48.730;11.566;2023-05-24T06:16:04;6.15;;;4.00;;
22144;SDS011;11238;48.730;11.566;2023-05-24T06:18:33;8.93;;;4.57;;
22144;SDS011;11238;48.730;11.566;2023-05-24T06:20:59;11.80;;;4.50;;
22144;SDS011;11238;48.730;11.566;2023-05-24T06:23:45;8.25;;;4.13;;
22144;SDS011;11238;48.730;11.566;2023-05-24T06:26:11;9.68;;;4.68;;
22144;SDS011;11238;48.730;11.566;2023-05-24T06:28:36;9.30;;;4.97;;
22144;SDS011;11238;48.730;11.566;2023-05-24T06:31:02;11.63;;;5.03;;
22144;SDS011;11238;48.730;11.566;2023-05-24T06:33:29;9.77;;;4.88;;
22144;SDS011;11238;48.730;11.566;2023-05-24T06:35:57;14.65;;;5.25;;
22144;SDS011;11238;48.730;11.566;2023-05-24T06:38:23;7.65;;;4.30;;
22144;SDS011;11238;48.730;11.566;2023-05-24T06:40:48;6.68;;;4.20;;
22144;SDS011;11238;48.730;11.566;2023-05-24T06:43:15;8.23;;;4.50;;
22144;SDS011;11238;48.730;11.566;2023-05-24T06:45:41;8.57;;;4.32;;
22144;SDS011;11238;48.730;11.566;2023-05-24T06:48:08;12.90;;;4.53;;
22144;SDS011;11238;48.730;11.566;2023-05-24T06:50:34;8.15;;;5.25;;
22144;SDS011;11238;48.730;11.566;2023-05-24T06:53:00;8.57;;;4.38;;
22144;SDS011;11238;48.730;11.566;2023-05-24T06:55:30;11.30;;;4.55;;
22144;SDS011;11238;48.730;11.566;2023-05-24T06:57:56;7.25;;;4.90;;
22144;SDS011;11238;48.730;11.566;2023-05-24T07:00:21;8.50;;;4.20;;
22144;SDS011;11238;48.730;11.566;2023-05-24T07:02:48;12.45;;;5.47;;
22144;SDS011;11238;48.730;11.566;2023-05-24T07:05:14;9.75;;;4.60;;
22144;SDS011;11238;48.730;11.566;2023-05-24T07:07:42;9.60;;;4.22;;
22144;SDS011;11238;48.730;11.566;2023-05-24T07:10:30;13.25;;;5.13;;
22144;SDS011;11238;48.730;11.566;2023-05-24T07:12:56;9.77;;;5.18;;
22144;SDS011;11238;48.730;11.566;2023-05-24T07:15:26;14.68;;;4.30;;
22144;SDS011;11238;48.730;11.566;2023-05-24T07:17:52;13.48;;;5.28;;
22144;SDS011;11238;48.730;11.566;2023-05-24T07:20:18;9.63;;;4.70;;
22144;SDS011;11238;48.730;11.566;2023-05-24T07:22:43;10.55;;;4.93;;
22144;SDS011;11238;48.730;11.566;2023-05-24T07:25:09;11.05;;;5.00;;
22144;SDS011;11238;48.730;11.566;2023-05-24T07:27:35;7.50;;;4.45;;
22144;SDS011;11238;48.730;11.566;2023-05-24T07:30:01;10.38;;;4.28;;
22144;SDS011;11238;48.730;11.566;2023-05-24T07:32:31;12.57;;;4.78;;
22144;SDS011;11238;48.730;11.566;2023-05-24T07:34:58;10.90;;;4.72;;
22144;SDS011;11238;48.730;11.566;2023-05-24T07:37:24;11.40;;;4.70;;
22144;SDS011;11238;48.730;11.566;2023-05-24T07:39:50;16.23;;;5.35;;
22144;SDS011;11238;48.730;11.566;2023-05-24T07:42:17;9.45;;;4.65;;
22144;SDS011;11238;48.730;11.566;2023-05-24T07:44:44;9.23;;;4.93;;
22144;SDS011;11238;48.730;11.566;2023-05-24T07:47:11;9.75;;;4.75;;
22144;SDS011;11238;48.730;11.566;2023-05-24T07:49:37;12.05;;;4.70;;
22144;SDS011;11238;48.730;11.566;2023-05-24T07:52:03;10.40;;;5.07;;
22144;SDS011;11238;48.730;11.566;2023-05-24T07:54:30;13.90;;;4.90;;
22144;SDS011;11238;48.730;11.566;2023-05-24T07:56:57;11.77;;;4.80;;
22144;SDS011;11238;48.730;11.566;2023-05-24T07:59:23;12.75;;;4.40;;
22144;SDS011;11238;48.730;11.566;2023-05-24T08:01:48;10.73;;;4.70;;
22144;SDS011;11238;48.730;11.566;2023-05-24T08:04:14;9.68;;;4.68;;
22144;SDS011;11238;48.730;11.566;2023-05-24T08:06:41;11.30;;;4.95;;
22144;SDS011;11238;48.730;11.566;2023-05-24T08:09:08;13.43;;;4.93;;
22144;SDS011;11238;48.730;11.566;2023-05-24T08:11:35;8.77;;;4.28;;
22144;SDS011;11238;48.730;11.566;2023-05-24T08:14:00;11.25;;;4.50;;
22144;SDS011;11238;48.730;11.566;2023-05-24T08:16:26;12.52;;;4.40;;
22144;SDS011;11238;48.730;11.566;2023-05-24T08:18:52;14.30;;;4.38;;
22144;SDS011;11238;48.730;11.566;2023-05-24T08:21:19;9.63;;;4.55;;
22144;SDS011;11238;48.730;11.566;2023-05-24T08:23:45;13.27;;;4.55;;
22144;SDS011;11238;48.730;11.566;2023-05-24T08:26:11;8.65;;;4.00;;
22144;SDS011;11238;48.730;11.566;2023-05-24T08:28:37;11.25;;;5.07;;
22144;SDS011;11238;48.730;11.566;2023-05-24T08:31:03;12.27;;;4.65;;
22144;SDS011;11238;48.730;11.566;2023-05-24T08:33:29;9.05;;;4.60;;
22144;SDS011;11238;48.730;11.566;2023-05-24T08:35:54;9.55;;;4.45;;
22144;SDS011;11238;48.730;11.566;2023-05-24T08:38:42;14.00;;;4.72;;
22144;SDS011;11238;48.730;11.566;2023-05-24T08:41:09;13.73;;;4.53;;
22144;SDS011;11238;48.730;11.566;2023-05-24T08:43:35;14.43;;;4.40;;
22144;SDS011;11238;48.730;11.566;2023-05-24T08:46:02;12.32;;;4.53;;
22144;SDS011;11238;48.730;11.566;2023-05-24T08:48:30;12.98;;;5.28;;
22144;SDS011;11238;48.730;11.566;2023-05-24T08:50:56;11.85;;;4.20;;
22144;SDS011;11238;48.730;11.566;2023-05-24T08:53:23;9.02;;;4.30;;
22144;SDS011;11238;48.730;11.566;2023-05-24T08:55:49;13.68;;;4.40;;
22144;SDS011;11238;48.730;11.566;2023-05-24T08:58:20;9.60;;;4.75;;
22144;SDS011;11238;48.730;11.566;2023-05-24T09:00:46;9.88;;;4.80;;
22144;SDS011;11238;48.730;11.566;2023-05-24T09:03:12;9.77;;;4.35;;
22144;SDS011;11238;48.730;11.566;2023-05-24T09:05:38;11.00;;;4.53;;
22144;SDS011;11238;48.730;11.566;2023-05-24T09:08:06;12.02;;;3.90;;
22144;SDS011;11238;48.730;11.566;2023-05-24T09:10:34;10.63;;;4.07;;
22144;SDS011;11238;48.730;11.566;2023-05-24T09:13:02;9.15;;;4.30;;
22144;SDS011;11238;48.730;11.566;2023-05-24T09:15:29;8.85;;;4.30;;
22144;SDS011;11238;48.730;11.566;2023-05-24T09:17:56;10.63;;;4.18;;
22144;SDS011;11238;48.730;11.566;2023-05-24T09:20:22;8.05;;;4.20;;
22144;SDS011;11238;48.730;11.566;2023-05-24T09:22:49;11.32;;;3.78;;
22144;SDS011;11238;48.730;11.566;2023-05-24T09:25:18;10.15;;;3.72;;
22144;SDS011;11238;48.730;11.566;2023-05-24T09:27:51;15.77;;;4.72;;
22144;SDS011;11238;48.730;11.566;2023-05-24T09:30:17;11.98;;;4.30;;
22144;SDS011;11238;48.730;11.566;2023-05-24T09:32:59;8.90;;;4.47;;
22144;SDS011;11238;48.730;11.566;2023-05-24T09:35:26;9.52;;;4.78;;
22144;SDS011;11238;48.730;11.566;2023-05-24T09:37:58;12.50;;;4.47;;
22144;SDS011;11238;48.730;11.566;2023-05-24T09:40:25;15.52;;;4.72;;
22144;SDS011;11238;48.730;11.566;2023-05-24T09:43:05;11.40;;;3.88;;
22144;SDS011;11238;48.730;11.566;2023-05-24T09:45:37;15.32;;;4.88;;
22144;SDS011;11238;48.730;11.566;2023-05-24T09:48:12;12.57;;;4.75;;
22144;SDS011;11238;48.730;11.566;2023-05-24T09:50:39;13.93;;;5.10;;
22144;SDS011;11238;48.730;11.566;2023-05-24T09:53:06;13.13;;;4.47;;
22144;SDS011;11238;48.730;11.566;2023-05-24T09:55:35;10.18;;;4.28;;
22144;SDS011;11238;48.730;11.566;2023-05-24T09:58:03;11.30;;;5.00;;
22144;SDS011;11238;48.730;11.566;2023-05-24T10:00:32;18.52;;;4.80;;
22144;SDS011;11238;48.730;11.566;2023-05-24T10:03:09;14.23;;;4.93;;
22144;SDS011;11238;48.730;11.566;2023-05-24T10:05:37;14.25;;;4.78;;
22144;SDS011;11238;48.730;11.566;2023-05-24T10:08:07;14.48;;;4.85;;
22144;SDS011;11238;48.730;11.566;2023-05-24T10:10:35;13.95;;;4.72;;
22144;SDS011;11238;48.730;11.566;2023-05-24T10:13:01;11.40;;;4.65;;
22144;SDS011;11238;48.730;11.566;2023-05-24T10:15:28;16.02;;;4.78;;
22144;SDS011;11238;48.730;11.566;2023-05-24T10:17:55;14.00;;;4.78;;
22144;SDS011;11238;48.730;11.566;2023-05-24T10:20:24;15.38;;;5.13;;
22144;SDS011;11238;48.730;11.566;2023-05-24T10:22:52;13.13;;;5.43;;
22144;SDS011;11238;48.730;11.566;2023-05-24T10:25:22;10.80;;;4.65;;
22144;SDS011;11238;48.730;11.566;2023-05-24T10:27:54;13.75;;;5.07;;
22144;SDS011;11238;48.730;11.566;2023-05-24T10:30:36;10.82;;;4.45;;
22144;SDS011;11238;48.730;11.566;2023-05-24T10:33:24;15.68;;;5.10;;
22144;SDS011;11238;48.730;11.566;2023-05-24T10:35:50;13.85;;;4.80;;
22144;SDS011;11238;48.730;11.566;2023-05-24T10:38:22;13.30;;;5.18;;
22144;SDS011;11238;48.730;11.566;2023-05-24T10:40:49;15.93;;;5.28;;
22144;SDS011;11238;48.730;11.566;2023-05-24T10:43:15;16.90;;;5.63;;
22144;SDS011;11238;48.730;11.566;2023-05-24T10:45:42;14.05;;;5.22;;
22144;SDS011;11238;48.730;11.566;2023-05-24T10:50:39;15.52;;;5.13;;
22144;SDS011;11238;48.730;11.566;2023-05-24T10:53:16;18.52;;;4.65;;
22144;SDS011;11238;48.730;11.566;2023-05-24T10:55:49;10.00;;;4.47;;
22144;SDS011;11238;48.730;11.566;2023-05-24T10:59:05;17.50;;;4.88;;
22144;SDS011;11238;48.730;11.566;2023-05-24T11:01:25;13.38;;;4.40;;
22144;SDS011;11238;48.730;11.566;2023-05-24T11:03:52;12.23;;;4.80;;
22144;SDS011;11238;48.730;11.566;2023-05-24T11:06:51;11.55;;;4.63;;
22144;SDS011;11238;48.730;11.566;2023-05-24T11:09:20;15.50;;;4.93;;
22144;SDS011;11238;48.730;11.566;2023-05-24T11:11:47;14.75;;;4.93;;
22144;SDS011;11238;48.730;11.566;2023-05-24T11:14:19;14.88;;;4.75;;
22144;SDS011;11238;48.730;11.566;2023-05-24T11:16:48;15.30;;;5.55;;
22144;SDS011;11238;48.730;11.566;2023-05-24T11:19:19;13.77;;;4.60;;
22144;SDS011;11238;48.730;11.566;2023-05-24T11:21:49;14.73;;;4.85;;
22144;SDS011;11238;48.730;11.566;2023-05-24T11:24:18;10.73;;;4.72;;
22144;SDS011;11238;48.730;11.566;2023-05-24T11:26:46;9.18;;;3.97;;
22144;SDS011;11238;48.730;11.566;2023-05-24T11:29:12;12.20;;;4.47;;
22144;SDS011;11238;48.730;11.566;2023-05-24T11:31:52;11.00;;;4.80;;
22144;SDS011;11238;48.730;11.566;2023-05-24T11:34:19;10.98;;;4.32;;
22144;SDS011;11238;48.730;11.566;2023-05-24T11:36:46;11.35;;;4.50;;
22144;SDS011;11238;48.730;11.566;2023-05-24T11:39:15;8.82;;;4.10;;
22144;SDS011;11238;48.730;11.566;2023-05-24T11:42:04;9.27;;;4.10;;
22144;SDS011;11238;48.730;11.566;2023-05-24T11:44:34;10.77;;;4.25;;
22144;SDS011;11238;48.730;11.566;2023-05-24T11:47:25;10.15;;;4.30;;
22144;SDS011;11238;48.730;11.566;2023-05-24T11:49:52;12.23;;;4.63;;
22144;SDS011;11238;48.730;11.566;2023-05-24T11:52:18;12.20;;;4.20;;
22144;SDS011;11238;48.730;11.566;2023-05-24T11:54:44;15.32;;;4.75;;
22144;SDS011;11238;48.730;11.566;2023-05-24T11:57:10;9.38;;;4.15;;
22144;SDS011;11238;48.730;11.566;2023-05-24T11:59:36;12.10;;;4.28;;
22144;SDS011;11238;48.730;11.566;2023-05-24T12:02:04;10.63;;;4.70;;
22144;SDS011;11238;48.730;11.566;2023-05-24T12:04:32;12.95;;;4.20;;
22144;SDS011;11238;48.730;11.566;2023-05-24T12:06:58;11.50;;;4.35;;
22144;SDS011;11238;48.730;11.566;2023-05-24T12:09:25;12.55;;;4.45;;
22144;SDS011;11238;48.730;11.566;2023-05-24T12:11:52;12.00;;;4.78;;
22144;SDS011;11238;48.730;11.566;2023-05-24T12:14:19;10.38;;;3.58;;
22144;SDS011;11238;48.730;11.566;2023-05-24T12:16:52;12.77;;;3.95;;
22144;SDS011;11238;48.730;11.566;2023-05-24T12:19:23;10.20;;;3.95;;
22144;SDS011;11238;48.730;11.566;2023-05-24T12:21:56;14.98;;;4.13;;
22144;SDS011;11238;48.730;11.566;2023-05-24T12:24:23;11.13;;;4.00;;
22144;SDS011;11238;48.730;11.566;2023-05-24T12:26:51;10.88;;;3.88;;
22144;SDS011;11238;48.730;11.566;2023-05-24T12:29:22;13.70;;;4.65;;
22144;SDS011;11238;48.730;11.566;2023-05-24T12:31:47;15.85;;;4.72;;
22144;SDS011;11238;48.730;11.566;2023-05-24T12:34:14;14.18;;;3.85;;
22144;SDS011;11238;48.730;11.566;2023-05-24T12:36:42;12.13;;;4.00;;
22144;SDS011;11238;48.730;11.566;2023-05-24T12:39:25;8.60;;;3.40;;
22144;SDS011;11238;48.730;11.566;2023-05-24T12:42:01;7.55;;;3.13;;
22144;SDS011;11238;48.730;11.566;2023-05-24T12:44:35;11.98;;;3.03;;
22144;SDS011;11238;48.730;11.566;2023-05-24T12:49:29;6.72;;;3.03;;
22144;SDS011;11238;48.730;11.566;2023-05-24T12:51:56;13.60;;;3.38;;
22144;SDS011;11238;48.730;11.566;2023-05-24T12:54:23;8.52;;;2.97;;
22144;SDS011;11238;48.730;11.566;2023-05-24T12:56:51;11.93;;;3.00;;
22144;SDS011;11238;48.730;11.566;2023-05-24T12:59:19;9.23;;;3.50;;
22144;SDS011;11238;48.730;11.566;2023-05-24T13:01:45;8.40;;;3.22;;
22144;SDS011;11238;48.730;11.566;2023-05-24T13:04:16;8.32;;;3.33;;
22144;SDS011;11238;48.730;11.566;2023-05-24T13:06:42;11.32;;;3.70;;
22144;SDS011;11238;48.730;11.566;2023-05-24T13:09:08;11.65;;;3.28;;
22144;SDS011;11238;48.730;11.566;2023-05-24T13:11:35;10.75;;;3.45;;
22144;SDS011;11238;48.730;11.566;2023-05-24T13:14:01;10.70;;;3.00;;
22144;SDS011;11238;48.730;11.566;2023-05-24T13:16:28;7.97;;;2.65;;
22144;SDS011;11238;48.730;11.566;2023-05-24T13:18:54;5.45;;;2.75;;
22144;SDS011;11238;48.730;11.566;2023-05-24T13:21:20;9.68;;;2.80;;
22144;SDS011;11238;48.730;11.566;2023-05-24T13:23:48;13.85;;;2.80;;
22144;SDS011;11238;48.730;11.566;2023-05-24T13:26:14;7.72;;;3.10;;
22144;SDS011;11238;48.730;11.566;2023-05-24T13:28:39;8.52;;;3.20;;
22144;SDS011;11238;48.730;11.566;2023-05-24T13:31:07;7.65;;;2.88;;
22144;SDS011;11238;48.730;11.566;2023-05-24T13:33:33;16.02;;;3.47;;
22144;SDS011;11238;48.730;11.566;2023-05-24T13:35:59;10.13;;;3.10;;
22144;SDS011;11238;48.730;11.566;2023-05-24T13:38:25;10.15;;;3.40;;
22144;SDS011;11238;48.730;11.566;2023-05-24T13:40:53;10.52;;;3.60;;
22144;SDS011;11238;48.730;11.566;2023-05-24T13:43:19;8.45;;;3.28;;
22144;SDS011;11238;48.730;11.566;2023-05-24T13:45:45;5.75;;;2.88;;
22144;SDS011;11238;48.730;11.566;2023-05-24T13:48:11;11.15;;;3.85;;
22144;SDS011;11238;48.730;11.566;2023-05-24T13:50:38;9.68;;;3.90;;
22144;SDS011;11238;48.730;11.566;2023-05-24T13:53:04;11.77;;;3.97;;
22144;SDS011;11238;48.730;11.566;2023-05-24T13:55:31;10.65;;;4.05;;
22144;SDS011;11238;48.730;11.566;2023-05-24T13:58:21;7.45;;;3.10;;
22144;SDS011;11238;48.730;11.566;2023-05-24T14:00:46;13.27;;;4.47;;
22144;SDS011;11238;48.730;11.566;2023-05-24T14:03:13;12.98;;;3.70;;
22144;SDS011;11238;48.730;11.566;2023-05-24T14:05:39;8.98;;;3.55;;
22144;SDS011;11238;48.730;11.566;2023-05-24T14:08:06;12.23;;;4.32;;
22144;SDS011;11238;48.730;11.566;2023-05-24T14:10:35;9.68;;;3.65;;
22144;SDS011;11238;48.730;11.566;2023-05-24T14:13:02;9.73;;;3.70;;
22144;SDS011;11238;48.730;11.566;2023-05-24T14:15:28;10.40;;;4.30;;
22144;SDS011;11238;48.730;11.566;2023-05-24T14:17:55;10.02;;;4.15;;
22144;SDS011;11238;48.730;11.566;2023-05-24T14:20:22;11.38;;;4.35;;
22144;SDS011;11238;48.730;11.566;2023-05-24T14:22:47;12.23;;;3.67;;
22144;SDS011;11238;48.730;11.566;2023-05-24T14:25:13;11.45;;;4.35;;
22144;SDS011;11238;48.730;11.566;2023-05-24T14:27:39;11.88;;;4.25;;
22144;SDS011;11238;48.730;11.566;2023-05-24T14:30:06;10.60;;;4.07;;
22144;SDS011;11238;48.730;11.566;2023-05-24T14:32:32;8.13;;;3.30;;
22144;SDS011;11238;48.730;11.566;2023-05-24T14:34:58;14.88;;;4.28;;
22144;SDS011;11238;48.730;11.566;2023-05-24T14:37:24;10.18;;;3.78;;
22144;SDS011;11238;48.730;11.566;2023-05-24T14:39:50;10.77;;;4.50;;
22144;SDS011;11238;48.730;11.566;2023-05-24T14:42:15;11.82;;;4.45;;
22144;SDS011;11238;48.730;11.566;2023-05-24T14:44:41;10.45;;;4.43;;
22144;SDS011;11238;48.730;11.566;2023-05-24T14:47:07;11.43;;;4.70;;
22144;SDS011;11238;48.730;11.566;2023-05-24T14:49:33;10.65;;;4.40;;
22144;SDS011;11238;48.730;11.566;2023-05-24T14:51:58;13.70;;;4.50;;